sensor_id;sensor_type;location;lat;lon;timestamp;pressure;altitude;pressure_sealevel;temperature;humidity
60212;BME280;46079;48.686;15.598;2023-02-22T00:01:13;99935.34;;;19.69;40.20
60212;BME280;46079;48.686;15.598;2023-02-22T00:04:04;99931.84;;;19.69;39.93
60212;BME280;46079;48.686;15.598;2023-02-22T00:06:30;99936.28;;;19.68;40.23
60212;BME280;46079;48.686;15.598;2023-02-22T00:08:56;99932.81;;;19.68;39.97
60212;BME280;46079;48.686;15.598;2023-02-22T00:11:22;99932.81;;;19.68;39.83
60212;BME280;46079;48.686;15.598;2023-02-22T00:13:48;99943.31;;;19.68;40.10
60212;BME280;46079;48.686;15.598;2023-02-22T00:16:20;99933.66;;;19.68;40.18
60212;BME280;46079;48.686;15.598;2023-02-22T00:18:46;99932.81;;;19.68;40.06
60212;BME280;46079;48.686;15.598;2023-02-22T00:21:13;99930.19;;;19.68;40.14
60212;BME280;46079;48.686;15.598;2023-02-22T00:23:41;99933.81;;;19.67;40.25
60212;BME280;46079;48.686;15.598;2023-02-22T00:26:12;99931.19;;;19.67;40.00
60212;BME280;46079;48.686;15.598;2023-02-22T00:28:43;99934.63;;;19.67;40.15
60212;BME280;46079;48.686;15.598;2023-02-22T00:31:08;99934.63;;;19.67;39.93
60212;BME280;46079;48.686;15.598;2023-02-22T00:33:34;99935.44;;;19.68;40.10
60212;BME280;46079;48.686;15.598;2023-02-22T00:36:11;99942.50;;;19.67;40.06
60212;BME280;46079;48.686;15.598;2023-02-22T00:38:38;99934.63;;;19.67;40.13
60212;BME280;46079;48.686;15.598;2023-02-22T00:41:03;99939.88;;;19.67;40.08
60212;BME280;46079;48.686;15.598;2023-02-22T00:43:29;99938.19;;;19.66;39.83
60212;BME280;46079;48.686;15.598;2023-02-22T00:45:54;99937.38;;;19.66;39.94
60212;BME280;46079;48.686;15.598;2023-02-22T00:48:21;99942.63;;;19.66;40.26
60212;BME280;46079;48.686;15.598;2023-02-22T00:50:46;99936.50;;;19.65;40.11
60212;BME280;46079;48.686;15.598;2023-02-22T00:53:28;99933.06;;;19.65;40.21
60212;BME280;46079;48.686;15.598;2023-02-22T00:55:54;99933.88;;;19.65;40.15
60212;BME280;46079;48.686;15.598;2023-02-22T00:58:20;99931.25;;;19.65;40.02
60212;BME280;46079;48.686;15.598;2023-02-22T01:00:46;99930.44;;;19.65;40.07
60212;BME280;46079;48.686;15.598;2023-02-22T01:03:13;99933.06;;;19.65;40.12
60212;BME280;46079;48.686;15.598;2023-02-22T01:05:39;99927.81;;;19.65;39.91
60212;BME280;46079;48.686;15.598;2023-02-22T01:08:06;99923.53;;;19.64;40.19
60212;BME280;46079;48.686;15.598;2023-02-22T01:10:32;99921.88;;;19.63;40.16
60212;BME280;46079;48.686;15.598;2023-02-22T01:12:59;99928.78;;;19.64;40.09
60212;BME280;46079;48.686;15.598;2023-02-22T01:15:26;99926.16;;;19.64;40.10
60212;BME280;46079;48.686;15.598;2023-02-22T01:17:55;99915.66;;;19.64;40.12
60212;BME280;46079;48.686;15.598;2023-02-22T01:20:23;99923.53;;;19.64;40.19
60212;BME280;46079;48.686;15.598;2023-02-22T01:22:51;99921.88;;;19.63;40.12
60212;BME280;46079;48.686;15.598;2023-02-22T01:25:22;99918.28;;;19.64;40.19
60212;BME280;46079;48.686;15.598;2023-02-22T01:27:49;99916.63;;;19.63;40.17
60212;BME280;46079;48.686;15.598;2023-02-22T01:30:19;99911.38;;;19.63;40.00
60212;BME280;46079;48.686;15.598;2023-02-22T01:32:44;99918.28;;;19.64;40.16
60212;BME280;46079;48.686;15.598;2023-02-22T01:35:15;99903.50;;;19.63;40.21
60212;BME280;46079;48.686;15.598;2023-02-22T01:37:43;99911.38;;;19.63;39.93
60212;BME280;46079;48.686;15.598;2023-02-22T01:40:14;99913.16;;;19.62;40.01
60212;BME280;46079;48.686;15.598;2023-02-22T01:42:40;99913.16;;;19.62;40.02
60212;BME280;46079;48.686;15.598;2023-02-22T01:46:39;99904.47;;;19.62;40.15
60212;BME280;46079;48.686;15.598;2023-02-22T01:51:02;99906.13;;;19.63;39.90
60212;BME280;46079;48.686;15.598;2023-02-22T01:53:59;99904.47;;;19.62;39.96
60212;BME280;46079;48.686;15.598;2023-02-22T01:56:27;99904.47;;;19.62;40.21
60212;BME280;46079;48.686;15.598;2023-02-22T01:59:03;99904.47;;;19.62;40.03
60212;BME280;46079;48.686;15.598;2023-02-22T02:01:31;99906.28;;;19.61;40.24
60212;BME280;46079;48.686;15.598;2023-02-22T02:03:59;99910.66;;;19.61;39.93
60212;BME280;46079;48.686;15.598;2023-02-22T02:06:30;99900.16;;;19.61;40.02
60212;BME280;46079;48.686;15.598;2023-02-22T02:09:02;99895.91;;;19.60;40.12
60212;BME280;46079;48.686;15.598;2023-02-22T02:11:28;99898.50;;;19.60;40.15
60212;BME280;46079;48.686;15.598;2023-02-22T02:13:56;99901.13;;;19.60;39.85
60212;BME280;46079;48.686;15.598;2023-02-22T02:16:25;99907.22;;;19.60;40.17
60212;BME280;46079;48.686;15.598;2023-02-22T02:18:54;99897.53;;;19.61;40.10
60212;BME280;46079;48.686;15.598;2023-02-22T02:21:40;99899.34;;;19.60;40.10
60212;BME280;46079;48.686;15.598;2023-02-22T02:33:24;99895.91;;;19.60;40.03
60212;BME280;46079;48.686;15.598;2023-02-22T02:38:35;99893.28;;;19.60;39.95
60212;BME280;46079;48.686;15.598;2023-02-22T02:41:16;99895.91;;;19.60;40.15
60212;BME280;46079;48.686;15.598;2023-02-22T02:43:53;99904.59;;;19.60;40.13
60212;BME280;46079;48.686;15.598;2023-02-22T02:46:31;99895.06;;;19.59;40.16
60212;BME280;46079;48.686;15.598;2023-02-22T02:49:02;99894.25;;;19.59;40.03
60212;BME280;46079;48.686;15.598;2023-02-22T02:51:31;99892.44;;;19.59;40.16
60212;BME280;46079;48.686;15.598;2023-02-22T02:53:58;99901.13;;;19.60;39.89
60212;BME280;46079;48.686;15.598;2023-02-22T02:56:24;99891.63;;;19.59;40.09
60212;BME280;46079;48.686;15.598;2023-02-22T02:58:51;99904.75;;;19.59;39.98
60212;BME280;46079;48.686;15.598;2023-02-22T03:01:53;99894.25;;;19.59;39.91
60212;BME280;46079;48.686;15.598;2023-02-22T03:07:04;99890.78;;;19.58;39.94
60212;BME280;46079;48.686;15.598;2023-02-22T03:18:26;99889.13;;;19.57;40.05
60212;BME280;46079;48.686;15.598;2023-02-22T03:24:49;99901.41;;;19.57;39.96
60212;BME280;46079;48.686;15.598;2023-02-22T03:27:17;99896.16;;;19.57;39.92
60212;BME280;46079;48.686;15.598;2023-02-22T03:29:47;99896.16;;;19.57;40.02
60212;BME280;46079;48.686;15.598;2023-02-22T03:32:19;99903.22;;;19.56;39.92
60212;BME280;46079;48.686;15.598;2023-02-22T03:34:59;99901.41;;;19.57;39.92
60212;BME280;46079;48.686;15.598;2023-02-22T03:37:31;99893.66;;;19.55;40.05
60212;BME280;46079;48.686;15.598;2023-02-22T03:39:59;99897.13;;;19.55;40.24
60212;BME280;46079;48.686;15.598;2023-02-22T03:42:34;99900.72;;;19.54;39.87
60212;BME280;46079;48.686;15.598;2023-02-22T03:45:02;99895.47;;;19.54;39.97
60212;BME280;46079;48.686;15.598;2023-02-22T03:47:40;99905.00;;;19.55;40.04
60212;BME280;46079;48.686;15.598;2023-02-22T03:50:13;99903.31;;;19.54;39.92
60212;BME280;46079;48.686;15.598;2023-02-22T03:52:41;99911.19;;;19.54;40.07
60212;BME280;46079;48.686;15.598;2023-02-22T03:55:09;99903.31;;;19.54;39.96
60212;BME280;46079;48.686;15.598;2023-02-22T03:57:41;99907.75;;;19.54;40.12
60212;BME280;46079;48.686;15.598;2023-02-22T04:00:12;99904.16;;;19.55;40.03
60212;BME280;46079;48.686;15.598;2023-02-22T04:02:39;99903.31;;;19.54;40.21
60212;BME280;46079;48.686;15.598;2023-02-22T04:05:05;99903.31;;;19.54;40.17
60212;BME280;46079;48.686;15.598;2023-02-22T04:07:31;99905.13;;;19.54;40.07
60212;BME280;46079;48.686;15.598;2023-02-22T04:09:56;99902.50;;;19.54;40.13
60212;BME280;46079;48.686;15.598;2023-02-22T04:12:21;99906.94;;;19.53;40.07
60212;BME280;46079;48.686;15.598;2023-02-22T04:14:47;99899.19;;;19.52;40.13
60212;BME280;46079;48.686;15.598;2023-02-22T04:17:13;99895.47;;;19.54;40.05
60212;BME280;46079;48.686;15.598;2023-02-22T04:19:39;99891.19;;;19.53;40.31
60212;BME280;46079;48.686;15.598;2023-02-22T04:22:04;99893.81;;;19.53;40.29
60212;BME280;46079;48.686;15.598;2023-02-22T04:24:30;99885.94;;;19.53;39.99
60212;BME280;46079;48.686;15.598;2023-02-22T04:26:55;99890.47;;;19.51;40.21
60212;BME280;46079;48.686;15.598;2023-02-22T04:29:20;99894.75;;;19.52;39.84
60212;BME280;46079;48.686;15.598;2023-02-22T04:31:46;99885.13;;;19.53;39.97
60212;BME280;46079;48.686;15.598;2023-02-22T04:34:11;99886.88;;;19.52;40.15
60212;BME280;46079;48.686;15.598;2023-02-22T04:36:37;99885.94;;;19.53;39.79
60212;BME280;46079;48.686;15.598;2023-02-22T04:39:03;99896.44;;;19.53;40.21
60212;BME280;46079;48.686;15.598;2023-02-22T04:41:29;99890.47;;;19.51;39.99
60212;BME280;46079;48.686;15.598;2023-02-22T04:43:56;99891.19;;;19.53;40.14
60212;BME280;46079;48.686;15.598;2023-02-22T04:46:21;99887.75;;;19.53;40.05
60212;BME280;46079;48.686;15.598;2023-02-22T04:48:47;99883.44;;;19.52;40.08
60212;BME280;46079;48.686;15.598;2023-02-22T04:51:12;99882.59;;;19.51;40.07
60212;BME280;46079;48.686;15.598;2023-02-22T04:53:38;99873.91;;;19.51;40.00
60212;BME280;46079;48.686;15.598;2023-02-22T04:56:04;99873.75;;;19.52;39.88
60212;BME280;46079;48.686;15.598;2023-02-22T04:58:29;99882.50;;;19.53;40.22
60212;BME280;46079;48.686;15.598;2023-02-22T05:00:55;99877.38;;;19.51;40.04
60212;BME280;46079;48.686;15.598;2023-02-22T05:03:21;99882.59;;;19.51;39.94
60212;BME280;46079;48.686;15.598;2023-02-22T05:05:46;99879.00;;;19.52;40.23
60212;BME280;46079;48.686;15.598;2023-02-22T05:08:12;99882.59;;;19.51;40.13
60212;BME280;46079;48.686;15.598;2023-02-22T05:10:37;99886.22;;;19.50;40.07
60212;BME280;46079;48.686;15.598;2023-02-22T05:13:03;99885.22;;;19.51;40.09
60212;BME280;46079;48.686;15.598;2023-02-22T05:15:30;99882.59;;;19.51;40.14
60212;BME280;46079;48.686;15.598;2023-02-22T05:17:56;99882.59;;;19.51;39.95
60212;BME280;46079;48.686;15.598;2023-02-22T05:20:28;99884.53;;;19.49;40.10
60212;BME280;46079;48.686;15.598;2023-02-22T05:22:55;99881.78;;;19.51;40.05
60212;BME280;46079;48.686;15.598;2023-02-22T05:25:21;99884.53;;;19.49;40.17
60212;BME280;46079;48.686;15.598;2023-02-22T05:28:11;99883.59;;;19.50;40.16
60212;BME280;46079;48.686;15.598;2023-02-22T05:30:37;99878.34;;;19.50;40.03
60212;BME280;46079;48.686;15.598;2023-02-22T05:33:07;99882.75;;;19.50;40.00
60212;BME280;46079;48.686;15.598;2023-02-22T05:35:32;99884.53;;;19.49;40.16
60212;BME280;46079;48.686;15.598;2023-02-22T05:37:58;99881.09;;;19.49;40.16
60212;BME280;46079;48.686;15.598;2023-02-22T05:40:27;99883.59;;;19.50;40.08
60212;BME280;46079;48.686;15.598;2023-02-22T05:42:53;99890.75;;;19.48;40.13
60212;BME280;46079;48.686;15.598;2023-02-22T05:45:22;99879.28;;;19.49;40.24
60212;BME280;46079;48.686;15.598;2023-02-22T05:47:47;99896.81;;;19.49;39.94
60212;BME280;46079;48.686;15.598;2023-02-22T05:50:14;99888.13;;;19.48;40.02
60212;BME280;46079;48.686;15.598;2023-02-22T05:52:40;99895.03;;;19.49;40.07
60212;BME280;46079;48.686;15.598;2023-02-22T05:55:07;99896.00;;;19.48;40.14
60212;BME280;46079;48.686;15.598;2023-02-22T05:57:33;99900.25;;;19.49;39.95
60212;BME280;46079;48.686;15.598;2023-02-22T05:59:59;99892.53;;;19.48;40.10
60212;BME280;46079;48.686;15.598;2023-02-22T06:02:25;99897.78;;;19.48;40.01
60212;BME280;46079;48.686;15.598;2023-02-22T06:04:50;99902.22;;;19.47;40.15
60212;BME280;46079;48.686;15.598;2023-02-22T06:07:16;99902.22;;;19.47;39.94
60212;BME280;46079;48.686;15.598;2023-02-22T06:09:41;99902.22;;;19.47;40.09
60212;BME280;46079;48.686;15.598;2023-02-22T06:12:07;99906.50;;;19.48;40.14
60212;BME280;46079;48.686;15.598;2023-02-22T06:14:33;99913.53;;;19.48;40.08
60212;BME280;46079;48.686;15.598;2023-02-22T06:16:59;99912.72;;;19.47;40.18
60212;BME280;46079;48.686;15.598;2023-02-22T06:19:25;99912.72;;;19.47;40.10
60212;BME280;46079;48.686;15.598;2023-02-22T06:21:56;99911.75;;;19.48;39.96
60212;BME280;46079;48.686;15.598;2023-02-22T06:24:24;99913.53;;;19.48;39.98
60212;BME280;46079;48.686;15.598;2023-02-22T06:26:58;99911.03;;;19.46;39.87
60212;BME280;46079;48.686;15.598;2023-02-22T06:29:25;99907.47;;;19.47;40.09
60212;BME280;46079;48.686;15.598;2023-02-22T06:31:51;99905.78;;;19.46;40.19
60212;BME280;46079;48.686;15.598;2023-02-22T06:34:17;99911.03;;;19.46;40.07
60212;BME280;46079;48.686;15.598;2023-02-22T06:36:42;99905.78;;;19.46;39.90
60212;BME280;46079;48.686;15.598;2023-02-22T06:39:08;99911.03;;;19.46;40.02
60212;BME280;46079;48.686;15.598;2023-02-22T06:41:37;99917.97;;;19.47;40.07
60212;BME280;46079;48.686;15.598;2023-02-22T06:44:03;99909.22;;;19.47;40.18
60212;BME280;46079;48.686;15.598;2023-02-22T06:46:29;99912.72;;;19.47;40.08
60212;BME280;46079;48.686;15.598;2023-02-22T06:48:55;99913.66;;;19.46;39.92
60212;BME280;46079;48.686;15.598;2023-02-22T06:51:23;99911.84;;;19.47;40.17
60212;BME280;46079;48.686;15.598;2023-02-22T06:53:49;99919.72;;;19.47;40.05
60212;BME280;46079;48.686;15.598;2023-02-22T06:56:14;99913.66;;;19.46;40.12
60212;BME280;46079;48.686;15.598;2023-02-22T06:58:40;99913.66;;;19.46;39.92
60212;BME280;46079;48.686;15.598;2023-02-22T07:01:05;99915.44;;;19.46;39.90
60212;BME280;46079;48.686;15.598;2023-02-22T07:03:33;99917.97;;;19.47;40.02
60212;BME280;46079;48.686;15.598;2023-02-22T07:05:58;99911.75;;;19.48;39.74
60212;BME280;46079;48.686;15.598;2023-02-22T07:08:24;99916.97;;;19.48;39.94
60212;BME280;46079;48.686;15.598;2023-02-22T07:10:49;99920.31;;;19.50;39.96
60212;BME280;46079;48.686;15.598;2023-02-22T07:13:14;99918.50;;;19.51;40.19
60212;BME280;46079;48.686;15.598;2023-02-22T07:15:40;99921.13;;;19.51;40.05
60212;BME280;46079;48.686;15.598;2023-02-22T07:18:06;99920.31;;;19.50;39.95
60212;BME280;46079;48.686;15.598;2023-02-22T07:20:32;99923.75;;;19.51;39.85
60212;BME280;46079;48.686;15.598;2023-02-22T07:22:58;99920.31;;;19.50;39.92
60212;BME280;46079;48.686;15.598;2023-02-22T07:25:24;99918.50;;;19.51;39.91
60212;BME280;46079;48.686;15.598;2023-02-22T07:27:50;99916.88;;;19.50;40.12
60212;BME280;46079;48.686;15.598;2023-02-22T07:30:18;99915.88;;;19.51;40.01
60212;BME280;46079;48.686;15.598;2023-02-22T07:32:45;99917.69;;;19.50;39.99
60212;BME280;46079;48.686;15.598;2023-02-22T07:35:22;99917.69;;;19.50;40.01
60212;BME280;46079;48.686;15.598;2023-02-22T07:37:48;99908.03;;;19.51;39.93
60212;BME280;46079;48.686;15.598;2023-02-22T07:40:14;99912.44;;;19.50;39.92
60212;BME280;46079;48.686;15.598;2023-02-22T07:42:56;99913.25;;;19.51;40.07
60212;BME280;46079;48.686;15.598;2023-02-22T07:45:24;99914.25;;;19.50;39.97
60212;BME280;46079;48.686;15.598;2023-02-22T07:47:50;99915.06;;;19.50;40.20
60212;BME280;46079;48.686;15.598;2023-02-22T07:50:17;99914.25;;;19.50;40.04
60212;BME280;46079;48.686;15.598;2023-02-22T07:52:47;99913.38;;;19.49;40.12
60212;BME280;46079;48.686;15.598;2023-02-22T07:55:17;99909.00;;;19.50;40.13
60212;BME280;46079;48.686;15.598;2023-02-22T07:57:47;99910.75;;;19.49;40.19
60212;BME280;46079;48.686;15.598;2023-02-22T08:00:14;99911.63;;;19.50;40.09
60212;BME280;46079;48.686;15.598;2023-02-22T08:02:41;99910.75;;;19.49;40.08
60212;BME280;46079;48.686;15.598;2023-02-22T08:05:07;99907.19;;;19.50;39.97
60212;BME280;46079;48.686;15.598;2023-02-22T08:07:37;99908.13;;;19.49;39.90
60212;BME280;46079;48.686;15.598;2023-02-22T08:10:04;99916.00;;;19.49;39.96
60212;BME280;46079;48.686;15.598;2023-02-22T08:12:33;99912.44;;;19.50;40.00
60212;BME280;46079;48.686;15.598;2023-02-22T08:14:59;99921.25;;;19.49;40.13
60212;BME280;46079;48.686;15.598;2023-02-22T08:17:25;99911.63;;;19.50;40.16
60212;BME280;46079;48.686;15.598;2023-02-22T08:19:50;99917.69;;;19.50;40.13
60212;BME280;46079;48.686;15.598;2023-02-22T08:22:16;99917.69;;;19.50;40.22
60212;BME280;46079;48.686;15.598;2023-02-22T08:24:41;99916.72;;;19.51;40.04
60212;BME280;46079;48.686;15.598;2023-02-22T08:27:06;99910.66;;;19.51;40.01
60212;BME280;46079;48.686;15.598;2023-02-22T08:29:32;99909.66;;;19.52;40.13
60212;BME280;46079;48.686;15.598;2023-02-22T08:32:01;99908.84;;;19.51;40.13
60212;BME280;46079;48.686;15.598;2023-02-22T08:34:27;99908.03;;;19.51;40.20
60212;BME280;46079;48.686;15.598;2023-02-22T08:36:53;99914.91;;;19.52;40.05
60212;BME280;46079;48.686;15.598;2023-02-22T08:39:19;99914.09;;;19.51;40.12
60212;BME280;46079;48.686;15.598;2023-02-22T08:41:44;99911.47;;;19.51;40.15
60212;BME280;46079;48.686;15.598;2023-02-22T08:44:10;99920.97;;;19.52;39.99
60212;BME280;46079;48.686;15.598;2023-02-22T08:46:35;99920.16;;;19.52;39.96
60212;BME280;46079;48.686;15.598;2023-02-22T08:49:01;99911.47;;;19.51;40.06
60212;BME280;46079;48.686;15.598;2023-02-22T08:51:27;99918.38;;;19.52;40.09
60212;BME280;46079;48.686;15.598;2023-02-22T08:53:53;99914.91;;;19.52;39.94
60212;BME280;46079;48.686;15.598;2023-02-22T08:56:19;99916.59;;;19.53;40.25
60212;BME280;46079;48.686;15.598;2023-02-22T08:58:45;99921.69;;;19.54;40.46
60212;BME280;46079;48.686;15.598;2023-02-22T09:01:10;99916.72;;;19.51;40.04
60212;BME280;46079;48.686;15.598;2023-02-22T09:03:36;99922.66;;;19.53;40.12
60212;BME280;46079;48.686;15.598;2023-02-22T09:06:03;99914.78;;;19.53;40.09
60212;BME280;46079;48.686;15.598;2023-02-22T09:08:29;99916.44;;;19.54;40.08
60212;BME280;46079;48.686;15.598;2023-02-22T09:10:54;99920.75;;;19.55;40.03
60212;BME280;46079;48.686;15.598;2023-02-22T09:13:19;99918.94;;;19.56;40.12
60212;BME280;46079;48.686;15.598;2023-02-22T09:15:45;99917.16;;;19.57;40.26
60212;BME280;46079;48.686;15.598;2023-02-22T09:18:12;99922.50;;;19.55;40.19
60212;BME280;46079;48.686;15.598;2023-02-22T09:20:39;99919.78;;;19.57;40.21
60212;BME280;46079;48.686;15.598;2023-02-22T09:23:05;99924.06;;;19.58;40.17
60212;BME280;46079;48.686;15.598;2023-02-22T09:25:31;99919.78;;;19.57;40.16
60212;BME280;46079;48.686;15.598;2023-02-22T09:27:58;99918.81;;;19.58;39.83
60212;BME280;46079;48.686;15.598;2023-02-22T09:30:28;99911.91;;;19.57;40.14
60212;BME280;46079;48.686;15.598;2023-02-22T09:32:59;99910.94;;;19.58;39.94
60212;BME280;46079;48.686;15.598;2023-02-22T09:35:25;99909.16;;;19.58;40.15
60212;BME280;46079;48.686;15.598;2023-02-22T09:37:59;99914.41;;;19.58;40.12
60212;BME280;46079;48.686;15.598;2023-02-22T09:40:28;99910.09;;;19.57;40.29
60212;BME280;46079;48.686;15.598;2023-02-22T09:43:20;99908.31;;;19.58;39.96
60212;BME280;46079;48.686;15.598;2023-02-22T09:46:04;99904.75;;;19.59;40.03
60212;BME280;46079;48.686;15.598;2023-02-22T09:48:42;99912.63;;;19.59;40.10
60212;BME280;46079;48.686;15.598;2023-02-22T09:51:16;99903.06;;;19.58;39.94
60212;BME280;46079;48.686;15.598;2023-02-22T09:53:45;99902.22;;;19.57;40.33
60212;BME280;46079;48.686;15.598;2023-02-22T09:56:15;99905.69;;;19.58;40.08
60212;BME280;46079;48.686;15.598;2023-02-22T09:58:49;99896.88;;;19.59;40.11
60212;BME280;46079;48.686;15.598;2023-02-22T10:04:03;99901.41;;;19.57;40.16
60212;BME280;46079;48.686;15.598;2023-02-22T10:06:31;99897.81;;;19.58;40.30
60212;BME280;46079;48.686;15.598;2023-02-22T10:09:00;99897.00;;;19.57;40.19
60212;BME280;46079;48.686;15.598;2023-02-22T10:19:31;99888.16;;;19.58;40.20
60212;BME280;46079;48.686;15.598;2023-02-22T10:22:18;99882.94;;;19.58;40.29
60212;BME280;46079;48.686;15.598;2023-02-22T10:27:31;99870.75;;;19.57;40.11
60212;BME280;46079;48.686;15.598;2023-02-22T10:32:43;99872.44;;;19.58;40.32
60212;BME280;46079;48.686;15.598;2023-02-22T10:35:23;99866.31;;;19.58;40.30
60212;BME280;46079;48.686;15.598;2023-02-22T10:37:52;99859.44;;;19.57;40.12
60212;BME280;46079;48.686;15.598;2023-02-22T10:40:21;99867.19;;;19.58;40.13
60212;BME280;46079;48.686;15.598;2023-02-22T10:42:49;99853.22;;;19.58;40.12
60212;BME280;46079;48.686;15.598;2023-02-22T10:45:23;99850.59;;;19.58;40.34
60212;BME280;46079;48.686;15.598;2023-02-22T10:47:53;99855.84;;;19.58;40.16
60212;BME280;46079;48.686;15.598;2023-02-22T10:50:20;99845.34;;;19.58;40.19
60212;BME280;46079;48.686;15.598;2023-02-22T10:52:46;99843.69;;;19.57;40.34
60212;BME280;46079;48.686;15.598;2023-02-22T10:55:13;99846.19;;;19.58;40.10
60212;BME280;46079;48.686;15.598;2023-02-22T10:57:41;99845.34;;;19.58;40.30
60212;BME280;46079;48.686;15.598;2023-02-22T11:02:55;99844.50;;;19.57;40.24
60212;BME280;46079;48.686;15.598;2023-02-22T11:05:39;99830.56;;;19.57;40.41
60212;BME280;46079;48.686;15.598;2023-02-22T11:10:50;99834.84;;;19.58;40.22
60212;BME280;46079;48.686;15.598;2023-02-22T11:13:30;99828.78;;;19.57;40.33
60212;BME280;46079;48.686;15.598;2023-02-22T11:16:00;99827.94;;;19.57;40.16
60212;BME280;46079;48.686;15.598;2023-02-22T11:18:33;99829.59;;;19.58;40.36
60212;BME280;46079;48.686;15.598;2023-02-22T11:21:10;99819.09;;;19.58;40.46
60212;BME280;46079;48.686;15.598;2023-02-22T11:23:39;99819.09;;;19.58;40.11
60212;BME280;46079;48.686;15.598;2023-02-22T11:26:08;99809.59;;;19.57;39.99
60212;BME280;46079;48.686;15.598;2023-02-22T11:28:35;99810.56;;;19.55;40.20
60212;BME280;46079;48.686;15.598;2023-02-22T11:31:30;99813.03;;;19.57;40.37
60212;BME280;46079;48.686;15.598;2023-02-22T11:34:00;99801.72;;;19.57;40.38
60212;BME280;46079;48.686;15.598;2023-02-22T11:36:38;99806.97;;;19.57;40.48
60212;BME280;46079;48.686;15.598;2023-02-22T11:39:25;99800.72;;;19.58;40.49
60212;BME280;46079;48.686;15.598;2023-02-22T11:41:51;99796.47;;;19.57;40.53
60212;BME280;46079;48.686;15.598;2023-02-22T11:46:49;99799.09;;;19.57;40.30
60212;BME280;46079;48.686;15.598;2023-02-22T11:49:17;99798.09;;;19.58;40.25
60212;BME280;46079;48.686;15.598;2023-02-22T12:06:14;99786.78;;;19.57;40.38
60212;BME280;46079;48.686;15.598;2023-02-22T12:09:11;99789.41;;;19.57;40.38
60212;BME280;46079;48.686;15.598;2023-02-22T12:17:06;99778.91;;;19.57;40.31
60212;BME280;46079;48.686;15.598;2023-02-22T12:19:38;99778.09;;;19.57;40.32
60212;BME280;46079;48.686;15.598;2023-02-22T12:22:28;99772.84;;;19.57;40.52
60212;BME280;46079;48.686;15.598;2023-02-22T12:27:43;99768.59;;;19.55;40.58
60212;BME280;46079;48.686;15.598;2023-02-22T12:30:19;99768.59;;;19.55;40.50
60212;BME280;46079;48.686;15.598;2023-02-22T12:32:57;99764.97;;;19.57;40.33
60212;BME280;46079;48.686;15.598;2023-02-22T12:35:36;99764.16;;;19.56;40.20
60212;BME280;46079;48.686;15.598;2023-02-22T12:38:12;99756.28;;;19.56;40.47
60212;BME280;46079;48.686;15.598;2023-02-22T12:40:46;99757.09;;;19.57;40.27
60212;BME280;46079;48.686;15.598;2023-02-22T12:43:35;99754.47;;;19.57;40.47
60212;BME280;46079;48.686;15.598;2023-02-22T12:46:17;99751.03;;;19.56;40.37
60212;BME280;46079;48.686;15.598;2023-02-22T12:59:37;99741.38;;;19.57;40.32
60212;BME280;46079;48.686;15.598;2023-02-22T13:02:22;99730.88;;;19.57;40.38
60212;BME280;46079;48.686;15.598;2023-02-22T13:04:50;99732.69;;;19.56;40.31
60212;BME280;46079;48.686;15.598;2023-02-22T13:10:11;99732.69;;;19.56;40.53
60212;BME280;46079;48.686;15.598;2023-02-22T13:18:36;99725.63;;;19.57;40.65
60212;BME280;46079;48.686;15.598;2023-02-22T13:23:56;99721.34;;;19.55;40.51
60212;BME280;46079;48.686;15.598;2023-02-22T13:29:09;99723.97;;;19.55;40.48
60212;BME280;46079;48.686;15.598;2023-02-22T13:48:01;99708.38;;;19.54;40.70
60212;BME280;46079;48.686;15.598;2023-02-22T13:53:26;99706.56;;;19.54;40.63
60212;BME280;46079;48.686;15.598;2023-02-22T13:55:55;99702.28;;;19.53;40.54
60212;BME280;46079;48.686;15.598;2023-02-22T13:58:23;99698.69;;;19.54;40.59
60212;BME280;46079;48.686;15.598;2023-02-22T14:00:54;99701.31;;;19.54;40.44
60212;BME280;46079;48.686;15.598;2023-02-22T14:05:48;99697.88;;;19.54;40.73
60212;BME280;46079;48.686;15.598;2023-02-22T14:16:29;99691.81;;;19.53;40.49
60212;BME280;46079;48.686;15.598;2023-02-22T14:19:25;99691.81;;;19.53;40.54
60212;BME280;46079;48.686;15.598;2023-02-22T14:22:08;99680.47;;;19.53;40.54
60212;BME280;46079;48.686;15.598;2023-02-22T14:24:45;99683.22;;;19.51;40.36
60212;BME280;46079;48.686;15.598;2023-02-22T14:27:12;99684.88;;;19.52;40.60
60212;BME280;46079;48.686;15.598;2023-02-22T14:29:54;99683.09;;;19.53;40.63
60212;BME280;46079;48.686;15.598;2023-02-22T14:32:20;99689.31;;;19.52;40.61
60212;BME280;46079;48.686;15.598;2023-02-22T14:34:57;99676.06;;;19.53;40.60
60212;BME280;46079;48.686;15.598;2023-02-22T14:37:32;99683.09;;;19.53;40.71
60212;BME280;46079;48.686;15.598;2023-02-22T14:40:07;99675.25;;;19.53;40.56
60212;BME280;46079;48.686;15.598;2023-02-22T14:42:48;99676.06;;;19.53;40.67
60212;BME280;46079;48.686;15.598;2023-02-22T14:47:48;99679.63;;;19.52;40.66
60212;BME280;46079;48.686;15.598;2023-02-22T14:50:28;99677.16;;;19.51;40.63
60212;BME280;46079;48.686;15.598;2023-02-22T14:53:06;99669.41;;;19.49;40.62
60212;BME280;46079;48.686;15.598;2023-02-22T14:55:59;99674.53;;;19.51;40.79
60212;BME280;46079;48.686;15.598;2023-02-22T15:03:49;99676.34;;;19.50;40.72
60212;BME280;46079;48.686;15.598;2023-02-22T15:06:24;99673.72;;;19.50;40.74
60212;BME280;46079;48.686;15.598;2023-02-22T15:11:36;99674.66;;;19.49;40.79
60212;BME280;46079;48.686;15.598;2023-02-22T15:14:02;99671.09;;;19.50;40.72
60212;BME280;46079;48.686;15.598;2023-02-22T15:16:46;99668.59;;;19.49;40.45
60212;BME280;46079;48.686;15.598;2023-02-22T15:19:16;99666.78;;;19.49;40.59
60212;BME280;46079;48.686;15.598;2023-02-22T15:21:51;99663.34;;;19.49;40.63
60212;BME280;46079;48.686;15.598;2023-02-22T15:24:24;99663.34;;;19.49;40.56
60212;BME280;46079;48.686;15.598;2023-02-22T15:26:51;99674.66;;;19.49;40.63